Time;durP1;ratioP1;P1;durP2;ratioP2;P2;SDS_P1;SDS_P2;PMS_P1;PMS_P2;Temp;Humidity;BMP_temperature;BMP_pressure;BME280_temperature;BME280_humidity;BME280_pressure;Samples;Min_cycle;Max_cycle;Signal;HPM_P1;HPM_P2
2023/04/25 00:01:57;;;;;;;7.10;4.90;;;;;;;11.30;59.76;99209.92;105968;1254;60499;-76
2023/04/25 00:04:25;;;;;;;7.30;4.90;;;;;;;11.29;59.93;99204.89;106622;1258;62526;-76
2023/04/25 00:06:57;;;;;;;6.00;4.90;;;;;;;11.29;59.80;99204.77;107309;1255;74673;-76
2023/04/25 00:09:24;;;;;;;7.70;5.20;;;;;;;11.28;60.04;99199.48;106750;1254;72296;-75
2023/04/25 00:11:51;;;;;;;6.70;5.10;;;;;;;11.29;59.97;99196.42;106127;1257;73952;-75
2023/04/25 00:14:18;;;;;;;6.80;5.80;;;;;;;11.29;59.71;99198.10;105942;1257;61245;-77
2023/04/25 00:16:45;;;;;;;7.60;5.00;;;;;;;11.29;59.79;99197.56;106027;1253;63199;-75
2023/04/25 00:19:13;;;;;;;8.80;5.50;;;;;;;11.29;59.88;99196.22;106016;1257;73875;-73
2023/04/25 00:21:41;;;;;;;5.50;4.70;;;;;;;11.30;59.69;99195.93;106131;1257;72588;-75
2023/04/25 00:24:08;;;;;;;6.60;4.70;;;;;;;11.29;59.64;99194.70;105862;1259;71572;-76
2023/04/25 00:26:38;;;;;;;6.50;5.30;;;;;;;11.30;59.88;99193.64;105867;1253;60506;-78
2023/04/25 00:29:05;;;;;;;5.60;5.00;;;;;;;11.29;59.88;99194.34;105777;1259;61533;-76
2023/04/25 00:31:32;;;;;;;8.00;5.20;;;;;;;11.29;59.88;99188.23;105847;1255;76174;-80
2023/04/25 00:33:59;;;;;;;6.40;4.80;;;;;;;11.29;59.88;99183.12;105924;1261;71194;-80
2023/04/25 00:36:26;;;;;;;7.70;4.50;;;;;;;11.29;60.04;99175.80;106061;1257;74979;-82
2023/04/25 00:38:55;;;;;;;5.80;4.50;;;;;;;11.30;59.57;99174.42;106538;1254;60829;-77
2023/04/25 00:41:22;;;;;;;7.00;5.00;;;;;;;11.32;59.59;99171.54;106093;1257;61570;-80
2023/04/25 00:43:49;;;;;;;7.50;4.40;;;;;;;11.33;59.50;99170.53;105859;1260;76195;-81
2023/04/25 00:46:17;;;;;;;9.40;5.40;;;;;;;11.33;59.56;99165.41;105926;1259;72412;-80
2023/04/25 00:48:44;;;;;;;7.00;4.60;;;;;;;11.32;59.84;99169.02;105709;1254;74776;-80
2023/04/25 00:51:15;;;;;;;5.70;5.00;;;;;;;11.31;59.61;99167.23;106331;1258;60498;-82
2023/04/25 00:53:42;;;;;;;6.00;4.50;;;;;;;11.30;59.68;99167.37;109012;1254;62484;-82
2023/04/25 00:56:10;;;;;;;8.00;5.50;;;;;;;11.29;59.70;99166.23;107179;1254;74519;-82
2023/04/25 00:58:37;;;;;;;5.60;4.70;;;;;;;11.26;59.58;99160.19;108166;1253;71712;-84
2023/04/25 01:01:06;;;;;;;9.00;5.20;;;;;;;11.27;59.77;99165.71;106627;1254;73708;-81
2023/04/25 01:03:35;;;;;;;7.70;5.50;;;;;;;11.26;59.92;99167.85;106329;1254;60839;-80
2023/04/25 01:06:03;;;;;;;7.50;5.10;;;;;;;11.25;60.16;99167.28;106437;1252;62112;-79
2023/04/25 01:08:30;;;;;;;7.90;5.20;;;;;;;11.21;60.12;99163.56;106242;1253;74820;-79
2023/04/25 01:10:58;;;;;;;6.80;5.10;;;;;;;11.19;60.43;99162.81;106226;1254;71368;-80
2023/04/25 01:13:27;;;;;;;6.50;5.00;;;;;;;11.16;60.51;99172.21;105922;1253;73772;-79
2023/04/25 01:15:54;;;;;;;8.90;5.00;;;;;;;11.13;60.67;99170.27;106328;1257;60460;-77
2023/04/25 01:18:21;;;;;;;6.30;5.00;;;;;;;11.09;61.02;99169.48;105996;1253;62320;-81
2023/04/25 01:20:52;;;;;;;7.50;5.10;;;;;;;11.07;61.11;99171.77;106461;1259;73383;-79
2023/04/25 01:23:21;;;;;;;8.30;5.90;;;;;;;11.03;61.34;99173.20;107881;1254;71104;-82
2023/04/25 01:25:48;;;;;;;7.70;5.60;;;;;;;11.02;61.30;99169.83;107627;1253;73667;-77
2023/04/25 01:28:16;;;;;;;11.80;5.70;;;;;;;11.01;61.16;99170.30;105887;1255;62441;-77
2023/04/25 01:30:43;;;;;;;8.10;5.00;;;;;;;11.00;61.10;99165.51;106106;1258;60369;-78
2023/04/25 01:33:10;;;;;;;6.60;4.80;;;;;;;10.97;61.35;99163.71;105945;1254;74003;-78
2023/04/25 01:35:38;;;;;;;5.60;4.70;;;;;;;10.95;61.36;99167.95;106004;1254;70540;-78
2023/04/25 01:38:05;;;;;;;9.40;5.80;;;;;;;10.93;61.79;99165.29;105845;1254;72112;-77
2023/04/25 01:40:32;;;;;;;6.40;5.60;;;;;;;10.89;61.47;99159.71;105928;1256;61000;-80
2023/04/25 01:42:59;;;;;;;8.30;4.90;;;;;;;10.85;61.95;99151.99;105842;1254;60457;-74
2023/04/25 01:45:26;;;;;;;6.30;5.20;;;;;;;10.82;62.12;99149.49;106001;1254;75872;-77
2023/04/25 01:47:53;;;;;;;7.30;5.20;;;;;;;10.80;61.85;99151.00;106508;1253;71310;-78
2023/04/25 01:50:20;;;;;;;7.00;5.30;;;;;;;10.78;62.15;99146.29;106687;1254;72607;-77
2023/04/25 01:52:48;;;;;;;8.30;5.60;;;;;;;10.76;62.10;99145.09;106827;1254;61611;-78
2023/04/25 01:55:16;;;;;;;7.30;6.00;;;;;;;10.75;62.30;99148.98;106879;1258;61117;-79
2023/04/25 01:58:01;;;;;;;8.60;6.60;;;;;;;10.73;62.42;99148.88;107553;1254;74774;-79
2023/04/25 02:00:45;;;;;;;7.10;5.80;;;;;;;10.71;62.56;99144.69;106560;1254;71563;-79
2023/04/25 02:03:13;;;;;;;7.50;6.00;;;;;;;10.68;62.80;99140.48;108809;1254;74462;-83
2023/04/25 02:05:40;;;;;;;6.10;5.40;;;;;;;10.65;63.17;99139.73;107570;1254;61150;-82
2023/04/25 02:08:12;;;;;;;8.40;5.70;;;;;;;10.62;63.16;99142.92;107378;1253;60994;-84
2023/04/25 02:10:39;;;;;;;8.00;5.80;;;;;;;10.61;63.16;99143.90;107462;1254;74603;-80
2023/04/25 02:13:15;;;;;;;9.30;5.80;;;;;;;10.58;63.50;99142.95;106102;1253;70739;-83
2023/04/25 02:16:02;;;;;;;7.40;5.40;;;;;;;10.55;63.55;99143.93;106283;1253;74742;-82
2023/04/25 02:18:31;;;;;;;8.50;5.70;;;;;;;10.52;63.68;99143.23;106845;1257;60653;-82
2023/04/25 02:21:00;;;;;;;6.80;5.80;;;;;;;10.48;63.76;99143.50;107141;1254;61354;-79
2023/04/25 02:23:28;;;;;;;6.50;5.70;;;;;;;10.44;64.02;99144.14;106546;1254;75877;-78
2023/04/25 02:25:57;;;;;;;8.40;6.00;;;;;;;10.39;64.30;99150.90;107085;1253;69672;-77
2023/04/25 02:28:25;;;;;;;13.30;5.80;;;;;;;10.34;65.09;99154.57;105835;1259;74418;-74
2023/04/25 02:30:52;;;;;;;7.90;5.90;;;;;;;10.27;64.96;99151.02;105924;1257;62379;-77
2023/04/25 02:33:20;;;;;;;8.00;6.00;;;;;;;10.22;65.18;99148.84;105900;1259;62275;-79
2023/04/25 02:35:47;;;;;;;6.80;5.90;;;;;;;10.17;65.70;99149.42;105898;1253;75802;-76
2023/04/25 02:38:14;;;;;;;9.00;6.50;;;;;;;10.12;66.16;99146.11;105917;1256;70838;-76
2023/04/25 02:40:41;;;;;;;8.50;6.30;;;;;;;10.07;66.08;99141.08;105927;1253;74608;-76
2023/04/25 02:43:08;;;;;;;7.80;6.50;;;;;;;10.02;66.33;99143.11;106047;1260;60898;-74
2023/04/25 02:45:35;;;;;;;8.40;6.30;;;;;;;10.01;66.39;99142.63;105853;1253;60526;-75
2023/04/25 02:48:03;;;;;;;8.60;5.60;;;;;;;10.08;66.62;99141.92;105834;1253;75924;-74
2023/04/25 02:50:31;;;;;;;7.80;6.10;;;;;;;10.11;66.58;99146.70;105837;1254;69345;-74
2023/04/25 02:52:58;;;;;;;9.60;6.60;;;;;;;10.06;66.77;99148.19;105873;1253;73340;-75
2023/04/25 02:55:29;;;;;;;8.80;6.30;;;;;;;10.01;66.85;99143.66;105877;1260;60434;-76
2023/04/25 02:58:01;;;;;;;7.90;6.20;;;;;;;9.96;67.23;99142.23;105910;1259;62666;-76
2023/04/25 03:00:42;;;;;;;10.70;6.60;;;;;;;9.93;67.11;99143.76;105886;1253;74727;-78
2023/04/25 03:03:10;;;;;;;7.60;5.90;;;;;;;9.90;67.09;99140.60;105898;1257;72175;-76
2023/04/25 03:05:37;;;;;;;8.50;6.40;;;;;;;9.87;67.20;99142.84;105941;1254;74736;-75
2023/04/25 03:08:05;;;;;;;10.00;6.90;;;;;;;9.84;67.44;99145.13;105788;1259;61466;-75
2023/04/25 03:10:34;;;;;;;8.90;6.50;;;;;;;9.81;67.63;99141.75;105931;1254;60984;-78
2023/04/25 03:13:03;;;;;;;12.80;6.60;;;;;;;9.78;67.74;99142.91;105675;1260;74357;-78
2023/04/25 03:15:31;;;;;;;11.60;6.90;;;;;;;9.77;67.60;99146.60;105831;1254;72514;-77
2023/04/25 03:17:59;;;;;;;8.70;5.80;;;;;;;9.83;67.82;99144.89;106097;1253;74799;-80
2023/04/25 03:20:26;;;;;;;11.10;6.10;;;;;;;9.94;67.59;99143.17;106555;1253;60949;-77
2023/04/25 03:22:53;;;;;;;8.70;6.80;;;;;;;9.96;67.57;99143.48;108715;1253;61651;-77
2023/04/25 03:25:20;;;;;;;10.40;7.40;;;;;;;9.97;67.60;99142.71;108945;1253;72358;-76
2023/04/25 03:27:48;;;;;;;8.60;6.60;;;;;;;9.98;67.58;99144.86;108790;1259;71193;-76
2023/04/25 03:30:15;;;;;;;9.50;6.30;;;;;;;10.00;67.64;99141.66;108493;1253;73328;-75
2023/04/25 03:32:43;;;;;;;8.50;6.50;;;;;;;10.01;67.27;99148.83;108318;1252;61000;-73
2023/04/25 03:35:14;;;;;;;7.20;6.50;;;;;;;10.02;67.43;99147.05;108245;1253;62419;-76
2023/04/25 03:37:45;;;;;;;8.20;6.20;;;;;;;10.04;67.45;99147.40;108754;1252;74915;-75
2023/04/25 03:40:16;;;;;;;9.50;6.80;;;;;;;10.05;67.29;99143.18;108778;1253;71523;-74
2023/04/25 03:43:05;;;;;;;10.80;7.10;;;;;;;10.07;67.47;99139.65;108635;1253;71079;-75
2023/04/25 03:45:32;;;;;;;10.00;6.70;;;;;;;10.10;67.12;99140.69;108149;1252;62120;-75
2023/04/25 03:47:59;;;;;;;11.00;6.80;;;;;;;10.13;66.95;99142.98;108810;1257;62269;-76
2023/04/25 03:50:28;;;;;;;7.80;6.20;;;;;;;10.17;66.91;99140.72;108691;1252;74960;-73
2023/04/25 03:52:55;;;;;;;12.20;6.70;;;;;;;10.25;66.68;99139.45;108150;1253;71081;-74
2023/04/25 03:55:25;;;;;;;6.60;5.90;;;;;;;10.34;67.03;99138.92;108780;1253;71336;-75
2023/04/25 03:57:52;;;;;;;8.80;6.70;;;;;;;10.46;66.56;99134.91;108748;1253;60959;-75
2023/04/25 04:00:19;;;;;;;7.80;6.20;;;;;;;10.60;66.34;99138.36;108905;1253;60899;-78
2023/04/25 04:02:50;;;;;;;11.10;6.90;;;;;;;10.73;65.98;99138.88;108947;1253;74561;-75
2023/04/25 04:05:18;;;;;;;9.10;6.50;;;;;;;10.85;65.62;99137.35;109004;1253;70860;-77
2023/04/25 04:07:51;;;;;;;9.00;6.50;;;;;;;10.98;65.20;99136.75;108609;1252;73650;-74
2023/04/25 04:10:18;;;;;;;8.30;6.30;;;;;;;11.10;65.23;99130.45;108671;1253;58802;-75
2023/04/25 04:12:45;;;;;;;12.70;7.60;;;;;;;11.20;65.00;99130.09;108797;1252;61270;-73
2023/04/25 04:15:12;;;;;;;9.80;6.70;;;;;;;11.28;64.71;99133.41;108140;1253;74970;-75
2023/04/25 04:17:41;;;;;;;7.40;6.20;;;;;;;11.34;64.62;99138.71;108188;1251;71217;-73
2023/04/25 04:20:09;;;;;;;9.30;6.70;;;;;;;11.38;64.28;99132.34;108934;1253;73703;-75
2023/04/25 04:22:38;;;;;;;8.60;6.50;;;;;;;11.48;64.01;99127.93;108616;1253;60961;-76
2023/04/25 04:25:09;;;;;;;10.30;6.70;;;;;;;11.69;63.81;99128.67;108607;1253;60974;-74
2023/04/25 04:28:02;;;;;;;;;;;;;;;11.93;63.35;99123.39;108567;1253;73159;-76
2023/04/25 04:30:45;;;;;;;9.50;6.70;;;;;;;12.10;62.76;99126.07;108679;1253;71528;-75
2023/04/25 04:33:14;;;;;;;10.60;6.80;;;;;;;12.21;62.48;99120.50;108581;1253;73365;-74
2023/04/25 04:35:43;;;;;;;11.50;6.90;;;;;;;12.25;62.20;99121.52;108782;1252;61396;-76
2023/04/25 04:38:11;;;;;;;8.90;6.30;;;;;;;12.28;61.91;99116.95;107693;1253;61220;-75
2023/04/25 04:40:40;;;;;;;8.30;6.50;;;;;;;12.36;61.81;99117.52;108176;1253;75987;-75
2023/04/25 04:43:16;;;;;;;8.40;7.00;;;;;;;12.47;61.61;99115.47;108248;1253;71200;-75
2023/04/25 04:46:04;;;;;;;8.00;7.10;;;;;;;12.60;61.20;99117.80;108423;1253;73742;-76
2023/04/25 04:48:52;;;;;;;13.10;7.20;;;;;;;12.67;61.01;99117.69;108381;1253;62324;-77
2023/04/25 04:51:41;;;;;;;9.40;6.40;;;;;;;12.68;60.80;99114.48;108885;1252;62391;-78
2023/04/25 04:54:31;;;;;;;11.30;7.70;;;;;;;12.70;60.81;99112.12;109310;1252;74636;-81
2023/04/25 04:57:17;;;;;;;9.60;7.10;;;;;;;12.75;60.74;99117.56;109549;1253;70831;-78
2023/04/25 05:00:10;;;;;;;13.00;6.60;;;;;;;12.77;60.47;99112.56;109381;1253;73612;-78
2023/04/25 05:03:12;;;;;;;11.40;7.50;;;;;;;12.82;60.40;99119.31;109402;1253;61814;-79
2023/04/25 05:06:12;;;;;;;9.70;7.00;;;;;;;12.88;60.13;99119.61;109199;1253;59110;-81
2023/04/25 05:08:56;;;;;;;9.70;7.30;;;;;;;12.92;60.05;99119.44;109455;1253;74599;-82
2023/04/25 05:11:43;;;;;;;7.70;7.00;;;;;;;12.98;59.93;99115.28;109210;1253;71197;-74
2023/04/25 05:14:35;;;;;;;10.10;7.50;;;;;;;13.05;59.69;99113.70;109298;1253;73577;-79
2023/04/25 05:17:12;;;;;;;12.10;7.00;;;;;;;13.08;59.60;99106.61;109317;1253;58952;-75
2023/04/25 05:20:09;;;;;;;9.40;7.50;;;;;;;13.12;59.43;99107.21;109180;1252;60351;-78
2023/04/25 05:22:55;;;;;;;9.60;7.80;;;;;;;13.18;59.14;99103.70;109402;1252;74726;-78
2023/04/25 05:25:38;;;;;;;10.70;7.50;;;;;;;13.24;58.95;99104.98;109358;1253;71317;-76
2023/04/25 05:30:59;;;;;;;11.30;8.30;;;;;;;13.39;58.49;99104.85;105975;1292;599125;-76
2023/04/25 05:33:30;;;;;;;9.80;7.60;;;;;;;13.47;58.42;99103.69;108411;1267;61102;-78
2023/04/25 05:36:04;;;;;;;10.00;8.60;;;;;;;13.60;58.08;99105.74;108265;1267;58870;-77
2023/04/25 05:38:31;;;;;;;13.10;8.00;;;;;;;13.70;57.38;99104.58;107994;1266;71208;-79
2023/04/25 05:41:13;;;;;;;11.40;8.50;;;;;;;13.79;57.38;99103.02;108070;1266;71341;-76
2023/04/25 05:43:58;;;;;;;9.30;7.90;;;;;;;13.88;56.31;99103.11;108327;1266;172681;-74
2023/04/25 05:46:43;;;;;;;9.10;7.60;;;;;;;13.97;56.55;99102.81;109313;1252;61299;-74
2023/04/25 05:49:11;;;;;;;12.70;8.20;;;;;;;14.06;56.39;99100.52;109169;1254;61367;-75
2023/04/25 05:51:56;;;;;;;9.90;8.20;;;;;;;14.22;55.44;99102.03;109304;1253;73173;-81
2023/04/25 05:54:32;;;;;;;13.00;8.40;;;;;;;14.34;55.09;99102.24;109135;1253;70739;-76
2023/04/25 05:57:00;;;;;;;10.00;7.30;;;;;;;14.47;54.75;99100.76;109142;1253;71838;-81
2023/04/25 05:59:27;;;;;;;12.70;8.00;;;;;;;14.59;54.32;99101.09;109187;1252;59284;-79
2023/04/25 06:01:57;;;;;;;10.70;7.80;;;;;;;14.69;53.88;99097.02;109240;1253;60922;-77
2023/04/25 06:04:25;;;;;;;9.70;7.40;;;;;;;14.79;53.22;99098.34;109164;1252;72726;-80
2023/04/25 06:06:53;;;;;;;9.50;6.90;;;;;;;14.84;52.51;99096.77;108965;1253;69004;-79
2023/04/25 06:09:21;;;;;;;12.10;7.00;;;;;;;14.84;52.12;99092.83;109203;1253;73672;-79
2023/04/25 06:11:48;;;;;;;9.50;6.70;;;;;;;14.85;52.07;99090.96;109234;1254;61243;-77
2023/04/25 06:14:15;;;;;;;10.30;6.00;;;;;;;14.92;51.77;99093.20;109098;1253;58970;-78
2023/04/25 06:16:45;;;;;;;9.80;7.00;;;;;;;15.01;50.98;99087.20;108972;1253;74426;-75
2023/04/25 06:19:12;;;;;;;12.60;6.70;;;;;;;15.09;50.56;99083.91;109070;1254;71710;-76
2023/04/25 06:21:39;;;;;;;11.20;6.20;;;;;;;15.18;50.02;99083.16;108646;1252;75056;-77
2023/04/25 06:24:08;;;;;;;16.10;6.90;;;;;;;15.25;49.67;99080.61;108413;1253;61011;-75
2023/04/25 06:26:35;;;;;;;10.60;6.40;;;;;;;15.31;49.53;99076.05;108279;1253;62304;-76
2023/04/25 06:29:05;;;;;;;9.90;6.00;;;;;;;15.38;49.65;99075.83;108503;1253;74365;-78
2023/04/25 06:31:33;;;;;;;10.90;6.30;;;;;;;15.48;49.26;99077.29;108822;1259;71183;-77
2023/04/25 06:34:00;;;;;;;7.90;6.20;;;;;;;15.55;48.96;99076.42;108944;1254;73750;-78
2023/04/25 06:36:27;;;;;;;10.50;6.40;;;;;;;15.57;49.07;99068.22;108796;1252;61636;-76
2023/04/25 06:39:01;;;;;;;11.60;5.90;;;;;;;15.63;48.99;99072.21;108941;1254;61241;-75
2023/04/25 06:41:27;;;;;;;6.70;4.40;;;;;;;15.70;48.65;99070.56;108979;1253;74272;-75
2023/04/25 06:43:58;;;;;;;10.70;5.30;;;;;;;15.78;47.95;99072.99;108999;1253;70831;-74
2023/04/25 06:46:48;;;;;;;9.30;5.30;;;;;;;15.81;47.73;99062.79;108832;1254;73459;-74
2023/04/25 06:49:15;;;;;;;6.80;5.00;;;;;;;15.85;47.85;99067.02;108144;1254;61515;-77
2023/04/25 06:51:42;;;;;;;6.90;5.00;;;;;;;15.91;47.94;99064.67;108786;1254;59741;-77
2023/04/25 06:54:09;;;;;;;8.10;4.50;;;;;;;16.01;47.45;99065.09;109098;1254;74129;-79
2023/04/25 06:56:45;;;;;;;10.30;5.10;;;;;;;16.09;47.24;99058.80;109118;1254;71547;-74
2023/04/25 06:59:15;;;;;;;7.40;4.80;;;;;;;16.20;46.68;99061.28;108723;1254;74065;-74
2023/04/25 07:01:45;;;;;;;9.40;4.60;;;;;;;16.25;46.33;99062.64;109006;1253;61106;-85
2023/04/25 07:04:22;;;;;;;9.60;4.70;;;;;;;16.29;46.52;99059.59;109254;1254;58828;-86
2023/04/25 07:06:53;;;;;;;9.90;4.80;;;;;;;16.35;46.78;99058.26;108032;1260;73874;-74
2023/04/25 07:09:23;;;;;;;5.50;5.00;;;;;;;16.42;46.53;99057.23;106181;1260;71001;-76
2023/04/25 07:11:50;;;;;;;8.70;4.40;;;;;;;16.51;46.61;99058.20;106385;1260;73434;-81
2023/04/25 07:14:17;;;;;;;11.30;5.00;;;;;;;16.60;46.79;99052.19;106268;1254;61426;-76
2023/04/25 07:16:44;;;;;;;11.60;6.20;;;;;;;16.70;46.70;99058.60;105872;1254;59813;-73
2023/04/25 07:19:12;;;;;;;7.20;5.00;;;;;;;16.79;46.25;99061.10;106182;1259;75280;-79
2023/04/25 07:21:40;;;;;;;7.80;5.40;;;;;;;16.83;45.23;99059.95;106378;1255;71336;-78
2023/04/25 07:24:07;;;;;;;9.40;4.90;;;;;;;16.81;45.63;99062.86;106682;1254;73391;-80
2023/04/25 07:26:37;;;;;;;8.40;5.30;;;;;;;16.81;46.19;99062.11;108531;1254;62637;-84
2023/04/25 07:29:36;;;;;;;8.90;5.30;;;;;;;16.86;46.20;99057.60;107695;1253;62147;-73
2023/04/25 07:32:04;;;;;;;7.70;5.00;;;;;;;16.97;45.56;99060.98;105952;1260;75171;-77
2023/04/25 07:34:31;;;;;;;6.00;5.20;;;;;;;17.04;45.45;99057.95;105875;1256;71010;-75
2023/04/25 07:36:59;;;;;;;8.00;5.70;;;;;;;17.13;45.70;99061.88;105983;1255;74015;-79
2023/04/25 07:39:28;;;;;;;8.60;5.40;;;;;;;17.17;45.96;99059.40;105855;1257;62358;-80
2023/04/25 07:41:58;;;;;;;9.60;5.90;;;;;;;17.17;45.89;99055.17;106087;1259;61080;-77
2023/04/25 07:44:27;;;;;;;7.30;5.30;;;;;;;17.22;45.76;99056.59;105905;1257;74375;-79
2023/04/25 07:46:55;;;;;;;8.70;5.50;;;;;;;17.25;45.85;99059.69;105854;1254;71171;-81
2023/04/25 07:49:22;;;;;;;8.30;5.30;;;;;;;17.29;45.98;99052.54;105913;1260;75058;-78
2023/04/25 07:51:50;;;;;;;7.20;5.20;;;;;;;17.36;46.02;99052.77;105772;1255;62632;-79
2023/04/25 07:54:18;;;;;;;5.20;4.40;;;;;;;17.42;45.58;99057.66;105827;1259;62433;-76
2023/04/25 07:56:49;;;;;;;7.80;4.90;;;;;;;17.44;45.27;99050.05;105838;1253;73670;-78
2023/04/25 07:59:21;;;;;;;9.50;5.20;;;;;;;17.47;45.32;99053.55;105951;1259;70645;-74
2023/04/25 08:01:48;;;;;;;7.10;4.40;;;;;;;17.54;45.08;99048.29;106034;1254;74877;-74
2023/04/25 08:04:16;;;;;;;9.40;5.10;;;;;;;17.64;44.96;99054.77;106019;1257;61197;-76
2023/04/25 08:07:04;;;;;;;8.10;4.70;;;;;;;17.68;44.79;99056.85;106317;1260;62322;-76
2023/04/25 08:09:38;;;;;;;7.80;5.20;;;;;;;17.70;44.85;99045.98;105843;1254;74113;-73
2023/04/25 08:12:07;;;;;;;6.80;5.60;;;;;;;17.73;44.97;99040.68;105935;1254;72102;-76
2023/04/25 08:14:36;;;;;;;5.80;4.90;;;;;;;17.82;44.73;99044.63;105975;1254;73148;-76
2023/04/25 08:17:05;;;;;;;10.40;4.80;;;;;;;17.97;44.79;99043.52;105966;1253;62584;-78
2023/04/25 08:19:33;;;;;;;7.00;5.10;;;;;;;18.16;44.16;99045.58;106095;1254;62491;-78
2023/04/25 08:22:01;;;;;;;6.80;4.30;;;;;;;18.30;43.93;99036.15;105894;1254;75513;-75
2023/04/25 08:24:35;;;;;;;7.40;4.40;;;;;;;18.43;43.51;99041.02;105868;1254;72596;-76
2023/04/25 08:27:06;;;;;;;5.60;4.30;;;;;;;18.56;43.17;99036.88;105721;1253;71445;-77
2023/04/25 08:29:34;;;;;;;5.60;4.80;;;;;;;18.73;43.22;99031.45;105886;1253;62098;-76
2023/04/25 08:32:01;;;;;;;6.30;4.60;;;;;;;18.96;42.77;99026.11;105947;1253;62583;-76
2023/04/25 08:34:29;;;;;;;6.80;4.20;;;;;;;19.21;42.72;99023.94;105799;1254;73936;-76
2023/04/25 08:36:58;;;;;;;6.30;4.60;;;;;;;19.48;42.20;99031.14;106148;1257;70055;-77
2023/04/25 08:39:37;;;;;;;7.20;4.70;;;;;;;19.68;42.11;99019.07;106585;1252;74005;-78
2023/04/25 08:42:27;;;;;;;7.50;4.60;;;;;;;19.95;41.91;99017.63;106242;1254;59734;-77
2023/04/25 08:44:55;;;;;;;5.30;4.20;;;;;;;20.19;41.12;99016.07;105990;1254;59771;-78
2023/04/25 08:47:24;;;;;;;5.20;4.10;;;;;;;20.30;40.79;99010.30;106045;1253;75230;-78
2023/04/25 08:49:55;;;;;;;4.90;4.40;;;;;;;20.26;41.16;99015.52;106032;1254;69732;-76
2023/04/25 08:52:23;;;;;;;5.70;4.60;;;;;;;20.32;41.18;99013.16;105705;1253;74588;-75
2023/04/25 08:54:51;;;;;;;5.30;4.40;;;;;;;20.49;40.93;99011.61;105816;1255;59762;-76
2023/04/25 08:57:18;;;;;;;8.50;3.90;;;;;;;20.59;40.83;99009.64;105750;1254;62149;-76
2023/04/25 08:59:46;;;;;;;9.40;4.40;;;;;;;20.61;40.58;99006.08;105975;1257;74343;-75
2023/04/25 09:02:16;;;;;;;6.30;4.50;;;;;;;20.58;40.42;99010.42;105833;1254;72591;-77
2023/04/25 09:04:46;;;;;;;5.10;4.30;;;;;;;20.51;40.05;99010.23;105897;1259;73482;-75
2023/04/25 09:07:15;;;;;;;20.80;7.40;;;;;;;20.33;39.67;99010.76;106018;1259;59618;-76
2023/04/25 09:09:42;;;;;;;10.00;4.50;;;;;;;20.10;40.37;99002.95;105948;1254;60759;-76
2023/04/25 09:12:09;;;;;;;5.50;4.50;;;;;;;19.97;40.58;99006.28;105996;1254;74386;-77
2023/04/25 09:14:36;;;;;;;5.80;3.80;;;;;;;19.79;40.88;99008.90;105871;1259;71357;-75
2023/04/25 09:17:08;;;;;;;11.80;4.40;;;;;;;19.72;41.26;99006.54;105694;1258;75226;-76
2023/04/25 09:20:09;;;;;;;9.00;4.50;;;;;;;19.84;41.32;98998.59;105788;1254;62470;-76
2023/04/25 09:22:36;;;;;;;5.40;4.40;;;;;;;19.98;41.36;98995.39;105884;1253;63387;-76
2023/04/25 09:25:14;;;;;;;4.90;3.90;;;;;;;20.10;40.97;98990.70;105850;1259;74910;-76
2023/04/25 09:27:55;;;;;;;6.80;4.50;;;;;;;20.25;40.50;98986.28;105860;1259;71647;-76
2023/04/25 09:30:31;;;;;;;4.30;3.90;;;;;;;20.64;40.35;98994.37;105817;1254;74020;-78
2023/04/25 09:33:21;;;;;;;10.90;5.00;;;;;;;21.35;38.87;98996.35;105860;1254;61270;-73
2023/04/25 09:35:55;;;;;;;9.10;4.70;;;;;;;21.92;37.57;99007.14;105873;1259;60321;-76
2023/04/25 09:38:43;;;;;;;5.90;4.00;;;;;;;22.45;37.12;98998.30;105865;1253;73698;-77
2023/04/25 09:41:24;;;;;;;4.30;3.90;;;;;;;22.85;36.51;98985.50;105827;1257;69919;-76
2023/04/25 09:43:56;;;;;;;4.70;4.00;;;;;;;22.91;36.62;98975.48;105931;1256;73583;-77
2023/04/25 09:46:25;;;;;;;4.50;3.70;;;;;;;23.11;36.61;98973.91;106005;1254;62760;-74
2023/04/25 09:48:54;;;;;;;7.80;4.10;;;;;;;23.59;36.41;98973.98;105840;1259;62589;-74
2023/04/25 09:51:30;;;;;;;6.00;4.30;;;;;;;24.07;35.60;98976.92;105876;1253;72378;-76
2023/04/25 09:53:57;;;;;;;4.20;3.60;;;;;;;24.54;34.72;98974.81;105896;1259;71737;-74
2023/04/25 09:56:31;;;;;;;7.30;3.50;;;;;;;25.01;33.72;98968.52;105862;1254;74732;-76
2023/04/25 09:59:00;;;;;;;4.40;3.90;;;;;;;25.15;33.20;98967.40;105770;1260;60648;-75
2023/04/25 10:01:27;;;;;;;6.00;4.30;;;;;;;25.03;33.27;98957.48;105865;1259;61532;-78
2023/04/25 10:04:01;;;;;;;5.40;3.70;;;;;;;24.87;32.95;98968.60;105849;1259;76060;-78
2023/04/25 10:06:47;;;;;;;5.10;3.30;;;;;;;24.68;33.23;98955.20;105973;1259;68562;-77
2023/04/25 10:09:14;;;;;;;7.90;3.80;;;;;;;24.71;33.57;98958.81;105776;1261;73791;-76
2023/04/25 10:11:41;;;;;;;5.70;3.30;;;;;;;24.87;32.58;98964.11;105852;1253;61204;-76
2023/04/25 10:14:08;;;;;;;5.50;3.60;;;;;;;24.88;32.28;98954.75;105685;1261;62273;-74
2023/04/25 10:16:35;;;;;;;5.10;3.80;;;;;;;24.86;32.28;98953.09;105926;1257;75814;-76
2023/04/25 10:19:02;;;;;;;3.80;3.30;;;;;;;25.03;32.25;98947.36;106009;1253;70851;-77
2023/04/25 10:21:30;;;;;;;3.80;3.40;;;;;;;25.37;31.91;98943.92;105890;1254;73151;-78
2023/04/25 10:23:57;;;;;;;7.00;3.40;;;;;;;25.80;31.22;98944.08;105814;1259;61815;-77
2023/04/25 10:26:24;;;;;;;3.80;3.40;;;;;;;26.24;30.63;98955.41;105849;1254;62111;-78
2023/04/25 10:29:01;;;;;;;3.50;3.20;;;;;;;26.61;30.32;98946.52;105610;1259;75862;-76
2023/04/25 10:31:32;;;;;;;4.90;3.30;;;;;;;27.12;29.95;98944.48;105869;1254;72260;-75
2023/04/25 10:34:00;;;;;;;4.20;3.40;;;;;;;27.50;29.74;98929.03;105793;1257;74254;-77
2023/04/25 10:36:27;;;;;;;4.70;3.30;;;;;;;27.71;29.56;98927.79;105879;1258;61234;-77
2023/04/25 10:38:54;;;;;;;6.00;2.90;;;;;;;27.80;29.39;98945.18;105738;1253;61430;-75
2023/04/25 10:41:22;;;;;;;5.50;3.80;;;;;;;27.77;29.17;98936.24;105876;1254;74797;-76
2023/04/25 10:43:50;;;;;;;4.70;3.50;;;;;;;27.78;29.29;98929.63;105911;1254;72802;-74
2023/04/25 10:46:24;;;;;;;4.20;3.80;;;;;;;27.88;29.36;98915.31;106051;1258;73708;-75
2023/04/25 10:48:53;;;;;;;3.80;3.50;;;;;;;27.93;29.22;98920.63;105976;1254;61045;-76
2023/04/25 10:51:27;;;;;;;5.60;3.70;;;;;;;27.81;29.21;98922.63;105792;1257;61334;-75
2023/04/25 10:54:02;;;;;;;3.30;3.00;;;;;;;27.77;29.20;98917.96;105940;1257;73913;-75
2023/04/25 10:56:31;;;;;;;9.20;3.90;;;;;;;27.96;29.26;98916.79;105921;1254;72316;-75
2023/04/25 10:59:11;;;;;;;4.40;3.10;;;;;;;28.31;29.15;98909.82;106053;1253;75117;-75
2023/04/25 11:01:45;;;;;;;3.40;3.10;;;;;;;28.58;28.48;98910.12;105951;1253;62674;-76
2023/04/25 11:04:20;;;;;;;4.40;3.90;;;;;;;28.56;28.17;98912.08;105904;1253;62749;-74
2023/04/25 11:07:00;;;;;;;8.50;3.60;;;;;;;28.34;28.37;98908.66;105917;1254;76110;-75
2023/04/25 11:09:34;;;;;;;5.00;3.50;;;;;;;28.51;28.51;98902.44;105836;1254;72416;-73
2023/04/25 11:12:01;;;;;;;5.20;3.50;;;;;;;29.00;28.21;98901.86;106021;1254;73706;-74
2023/04/25 11:14:29;;;;;;;9.40;3.60;;;;;;;29.57;27.96;98896.80;105827;1253;61373;-75
2023/04/25 11:16:58;;;;;;;6.30;3.60;;;;;;;30.32;27.56;98898.48;105824;1254;61058;-75
2023/04/25 11:19:27;;;;;;;4.10;3.20;;;;;;;31.04;27.07;98893.46;105955;1256;75787;-75
2023/04/25 11:21:56;;;;;;;8.60;3.90;;;;;;;31.76;26.34;98888.45;105799;1259;71418;-77
2023/04/25 11:24:27;;;;;;;3.80;3.30;;;;;;;32.11;25.61;98888.45;105832;1254;74809;-79
2023/04/25 11:26:54;;;;;;;4.50;3.50;;;;;;;31.85;25.60;98880.95;105796;1254;62704;-77
2023/04/25 11:29:23;;;;;;;3.90;3.30;;;;;;;31.50;25.89;98876.77;105723;1253;62234;-78
2023/04/25 11:31:50;;;;;;;4.50;3.30;;;;;;;31.44;26.03;98877.78;105832;1256;74686;-78
2023/04/25 11:34:18;;;;;;;3.80;3.40;;;;;;;31.57;25.84;98881.08;105964;1257;71948;-78
2023/04/25 11:36:45;;;;;;;4.00;3.20;;;;;;;31.54;25.54;98886.38;105889;1254;73365;-76
2023/04/25 11:39:14;;;;;;;6.70;3.20;;;;;;;31.11;25.64;98878.62;105940;1254;60440;-79
2023/04/25 11:41:42;;;;;;;5.80;3.40;;;;;;;30.84;25.92;98881.12;105918;1254;60522;-77
2023/04/25 11:44:11;;;;;;;4.30;3.40;;;;;;;31.00;25.97;98877.60;105634;1254;73912;-77
2023/04/25 11:46:38;;;;;;;8.30;4.60;;;;;;;31.38;25.80;98877.05;105807;1254;72413;-78